sensor_id;sensor_type;location;lat;lon;timestamp;P1;durP1;ratioP1;P2;durP2;ratioP2
43297;SDS011;28892;55.640;37.532;2023-03-14T00:01:08;4.10;;;1.80;;
43297;SDS011;28892;55.640;37.532;2023-03-14T00:03:41;7.30;;;2.50;;
43297;SDS011;28892;55.640;37.532;2023-03-14T00:06:07;4.40;;;2.77;;
43297;SDS011;28892;55.640;37.532;2023-03-14T00:08:34;3.57;;;2.50;;
43297;SDS011;28892;55.640;37.532;2023-03-14T00:11:08;5.50;;;3.40;;
43297;SDS011;28892;55.640;37.532;2023-03-14T00:13:35;4.90;;;2.73;;
43297;SDS011;28892;55.640;37.532;2023-03-14T00:16:05;5.57;;;3.37;;
43297;SDS011;28892;55.640;37.532;2023-03-14T00:18:33;4.50;;;2.43;;
43297;SDS011;28892;55.640;37.532;2023-03-14T00:20:59;3.20;;;2.50;;
43297;SDS011;28892;55.640;37.532;2023-03-14T00:23:26;5.57;;;2.67;;
43297;SDS011;28892;55.640;37.532;2023-03-14T00:25:53;3.57;;;2.50;;
43297;SDS011;28892;55.640;37.532;2023-03-14T00:28:19;3.73;;;2.47;;
43297;SDS011;28892;55.640;37.532;2023-03-14T00:30:46;5.67;;;2.60;;
43297;SDS011;28892;55.640;37.532;2023-03-14T00:33:12;4.20;;;2.40;;
43297;SDS011;28892;55.640;37.532;2023-03-14T00:35:40;4.93;;;2.37;;
43297;SDS011;28892;55.640;37.532;2023-03-14T00:38:06;5.53;;;3.27;;
43297;SDS011;28892;55.640;37.532;2023-03-14T00:40:31;4.70;;;2.53;;
43297;SDS011;28892;55.640;37.532;2023-03-14T00:42:57;3.63;;;2.60;;
43297;SDS011;28892;55.640;37.532;2023-03-14T00:45:22;4.67;;;2.73;;
43297;SDS011;28892;55.640;37.532;2023-03-14T00:47:48;4.97;;;2.97;;
43297;SDS011;28892;55.640;37.532;2023-03-14T00:50:14;4.63;;;2.97;;
43297;SDS011;28892;55.640;37.532;2023-03-14T00:52:40;4.07;;;2.50;;
43297;SDS011;28892;55.640;37.532;2023-03-14T00:55:05;5.10;;;3.10;;
43297;SDS011;28892;55.640;37.532;2023-03-14T00:57:31;4.07;;;3.03;;
43297;SDS011;28892;55.640;37.532;2023-03-14T00:59:57;3.80;;;2.93;;
43297;SDS011;28892;55.640;37.532;2023-03-14T01:02:23;3.77;;;2.73;;
43297;SDS011;28892;55.640;37.532;2023-03-14T01:04:48;3.43;;;2.43;;
43297;SDS011;28892;55.640;37.532;2023-03-14T01:07:15;5.03;;;3.10;;
43297;SDS011;28892;55.640;37.532;2023-03-14T01:09:41;3.13;;;2.30;;
43297;SDS011;28892;55.640;37.532;2023-03-14T01:12:07;3.97;;;2.83;;
43297;SDS011;28892;55.640;37.532;2023-03-14T01:14:33;3.20;;;2.50;;
43297;SDS011;28892;55.640;37.532;2023-03-14T01:16:59;6.00;;;3.17;;
43297;SDS011;28892;55.640;37.532;2023-03-14T01:19:27;4.43;;;2.70;;
43297;SDS011;28892;55.640;37.532;2023-03-14T01:21:53;3.00;;;2.37;;
43297;SDS011;28892;55.640;37.532;2023-03-14T01:24:19;4.40;;;2.70;;
43297;SDS011;28892;55.640;37.532;2023-03-14T01:26:46;4.60;;;2.67;;
43297;SDS011;28892;55.640;37.532;2023-03-14T01:29:12;3.57;;;3.00;;
43297;SDS011;28892;55.640;37.532;2023-03-14T01:31:39;3.40;;;2.57;;
43297;SDS011;28892;55.640;37.532;2023-03-14T01:34:05;4.43;;;2.90;;
43297;SDS011;28892;55.640;37.532;2023-03-14T01:36:31;5.17;;;4.13;;
43297;SDS011;28892;55.640;37.532;2023-03-14T01:38:59;5.67;;;3.23;;
43297;SDS011;28892;55.640;37.532;2023-03-14T01:41:25;5.30;;;3.20;;
43297;SDS011;28892;55.640;37.532;2023-03-14T01:43:53;5.03;;;3.10;;
43297;SDS011;28892;55.640;37.532;2023-03-14T01:46:28;5.23;;;3.20;;
43297;SDS011;28892;55.640;37.532;2023-03-14T01:51:46;7.27;;;4.23;;
43297;SDS011;28892;55.640;37.532;2023-03-14T01:54:56;4.43;;;3.27;;
43297;SDS011;28892;55.640;37.532;2023-03-14T01:57:29;4.85;;;3.55;;
43297;SDS011;28892;55.640;37.532;2023-03-14T02:00:05;5.80;;;3.00;;
43297;SDS011;28892;55.640;37.532;2023-03-14T02:02:39;6.23;;;3.83;;
43297;SDS011;28892;55.640;37.532;2023-03-14T02:05:10;9.67;;;4.73;;
43297;SDS011;28892;55.640;37.532;2023-03-14T02:07:47;8.30;;;4.63;;
43297;SDS011;28892;55.640;37.532;2023-03-14T02:10:28;4.97;;;3.93;;
43297;SDS011;28892;55.640;37.532;2023-03-14T02:13:00;6.15;;;3.50;;
43297;SDS011;28892;55.640;37.532;2023-03-14T02:15:35;4.73;;;3.83;;
43297;SDS011;28892;55.640;37.532;2023-03-14T02:18:08;6.13;;;3.95;;
43297;SDS011;28892;55.640;37.532;2023-03-14T02:21:30;8.67;;;4.70;;
43297;SDS011;28892;55.640;37.532;2023-03-14T02:24:05;6.60;;;4.53;;
43297;SDS011;28892;55.640;37.532;2023-03-14T02:27:09;4.77;;;3.30;;
43297;SDS011;28892;55.640;37.532;2023-03-14T02:29:49;5.73;;;4.07;;
43297;SDS011;28892;55.640;37.532;2023-03-14T02:32:29;4.40;;;3.37;;
43297;SDS011;28892;55.640;37.532;2023-03-14T02:34:58;5.23;;;3.60;;
43297;SDS011;28892;55.640;37.532;2023-03-14T02:40:48;6.50;;;5.63;;
43297;SDS011;28892;55.640;37.532;2023-03-14T02:43:14;6.70;;;5.33;;
43297;SDS011;28892;55.640;37.532;2023-03-14T02:45:46;7.90;;;5.10;;
43297;SDS011;28892;55.640;37.532;2023-03-14T02:48:31;7.93;;;5.90;;
43297;SDS011;28892;55.640;37.532;2023-03-14T02:51:05;5.77;;;5.17;;
43297;SDS011;28892;55.640;37.532;2023-03-14T02:53:32;5.77;;;4.63;;
43297;SDS011;28892;55.640;37.532;2023-03-14T02:56:05;7.70;;;5.73;;
43297;SDS011;28892;55.640;37.532;2023-03-14T02:58:33;7.17;;;6.47;;
43297;SDS011;28892;55.640;37.532;2023-03-14T03:01:07;6.30;;;4.53;;
43297;SDS011;28892;55.640;37.532;2023-03-14T03:03:33;11.17;;;6.37;;
43297;SDS011;28892;55.640;37.532;2023-03-14T03:06:09;7.43;;;6.60;;
43297;SDS011;28892;55.640;37.532;2023-03-14T03:08:38;7.17;;;6.47;;
43297;SDS011;28892;55.640;37.532;2023-03-14T03:11:12;7.37;;;4.80;;
43297;SDS011;28892;55.640;37.532;2023-03-14T03:13:38;10.37;;;6.10;;
43297;SDS011;28892;55.640;37.532;2023-03-14T03:16:20;6.87;;;5.70;;
43297;SDS011;28892;55.640;37.532;2023-03-14T03:18:50;10.47;;;7.40;;
43297;SDS011;28892;55.640;37.532;2023-03-14T03:21:16;14.80;;;5.20;;
43297;SDS011;28892;55.640;37.532;2023-03-14T03:23:49;6.47;;;4.97;;
43297;SDS011;28892;55.640;37.532;2023-03-14T03:26:15;6.40;;;4.90;;
43297;SDS011;28892;55.640;37.532;2023-03-14T03:28:44;6.13;;;5.30;;
43297;SDS011;28892;55.640;37.532;2023-03-14T03:31:13;6.07;;;5.17;;
43297;SDS011;28892;55.640;37.532;2023-03-14T03:33:39;6.97;;;5.30;;
43297;SDS011;28892;55.640;37.532;2023-03-14T03:36:05;8.13;;;5.07;;
43297;SDS011;28892;55.640;37.532;2023-03-14T03:38:35;5.93;;;4.60;;
43297;SDS011;28892;55.640;37.532;2023-03-14T03:41:04;6.90;;;5.17;;
43297;SDS011;28892;55.640;37.532;2023-03-14T03:43:31;6.03;;;4.83;;
43297;SDS011;28892;55.640;37.532;2023-03-14T03:45:58;7.57;;;4.27;;
43297;SDS011;28892;55.640;37.532;2023-03-14T03:48:25;4.87;;;4.10;;
43297;SDS011;28892;55.640;37.532;2023-03-14T03:50:50;6.97;;;4.83;;
43297;SDS011;28892;55.640;37.532;2023-03-14T03:53:19;6.83;;;6.13;;
43297;SDS011;28892;55.640;37.532;2023-03-14T03:55:45;5.37;;;4.57;;
43297;SDS011;28892;55.640;37.532;2023-03-14T03:58:11;7.03;;;4.87;;
43297;SDS011;28892;55.640;37.532;2023-03-14T04:00:37;6.40;;;4.30;;
43297;SDS011;28892;55.640;37.532;2023-03-14T04:03:04;7.63;;;5.40;;
43297;SDS011;28892;55.640;37.532;2023-03-14T04:05:30;6.10;;;5.13;;
43297;SDS011;28892;55.640;37.532;2023-03-14T04:08:01;5.90;;;4.83;;
43297;SDS011;28892;55.640;37.532;2023-03-14T04:10:29;5.37;;;4.80;;
43297;SDS011;28892;55.640;37.532;2023-03-14T04:13:08;5.77;;;5.17;;
43297;SDS011;28892;55.640;37.532;2023-03-14T04:15:35;5.67;;;4.63;;
43297;SDS011;28892;55.640;37.532;2023-03-14T04:18:07;5.87;;;5.33;;
43297;SDS011;28892;55.640;37.532;2023-03-14T04:20:34;5.00;;;4.60;;
43297;SDS011;28892;55.640;37.532;2023-03-14T04:23:01;4.20;;;3.33;;
43297;SDS011;28892;55.640;37.532;2023-03-14T04:25:27;5.93;;;5.33;;
43297;SDS011;28892;55.640;37.532;2023-03-14T04:27:56;5.93;;;5.43;;
43297;SDS011;28892;55.640;37.532;2023-03-14T04:30:25;5.73;;;4.80;;
43297;SDS011;28892;55.640;37.532;2023-03-14T04:32:54;4.50;;;3.73;;
43297;SDS011;28892;55.640;37.532;2023-03-14T04:35:23;5.33;;;3.83;;
43297;SDS011;28892;55.640;37.532;2023-03-14T04:37:53;5.40;;;4.80;;
43297;SDS011;28892;55.640;37.532;2023-03-14T04:40:20;6.83;;;5.20;;
43297;SDS011;28892;55.640;37.532;2023-03-14T04:42:47;5.47;;;4.33;;
43297;SDS011;28892;55.640;37.532;2023-03-14T04:45:13;4.57;;;3.77;;
43297;SDS011;28892;55.640;37.532;2023-03-14T04:47:40;4.33;;;3.73;;
43297;SDS011;28892;55.640;37.532;2023-03-14T04:50:09;4.37;;;3.70;;
43297;SDS011;28892;55.640;37.532;2023-03-14T04:52:36;5.27;;;4.57;;
43297;SDS011;28892;55.640;37.532;2023-03-14T04:55:02;6.43;;;4.57;;
43297;SDS011;28892;55.640;37.532;2023-03-14T04:57:28;4.20;;;3.20;;
43297;SDS011;28892;55.640;37.532;2023-03-14T04:59:54;3.87;;;3.30;;
43297;SDS011;28892;55.640;37.532;2023-03-14T05:02:52;5.50;;;4.87;;
43297;SDS011;28892;55.640;37.532;2023-03-14T05:05:42;5.67;;;3.60;;
43297;SDS011;28892;55.640;37.532;2023-03-14T05:08:15;4.90;;;3.30;;
43297;SDS011;28892;55.640;37.532;2023-03-14T05:10:57;5.17;;;4.10;;
43297;SDS011;28892;55.640;37.532;2023-03-14T05:13:33;5.60;;;4.10;;
43297;SDS011;28892;55.640;37.532;2023-03-14T05:16:18;7.77;;;4.30;;
43297;SDS011;28892;55.640;37.532;2023-03-14T05:19:04;7.03;;;4.83;;
43297;SDS011;28892;55.640;37.532;2023-03-14T05:21:50;5.20;;;3.90;;
43297;SDS011;28892;55.640;37.532;2023-03-14T05:24:25;5.57;;;4.40;;
43297;SDS011;28892;55.640;37.532;2023-03-14T05:26:59;5.33;;;4.40;;
43297;SDS011;28892;55.640;37.532;2023-03-14T05:29:51;4.37;;;3.13;;
43297;SDS011;28892;55.640;37.532;2023-03-14T05:32:35;5.50;;;3.43;;
43297;SDS011;28892;55.640;37.532;2023-03-14T05:35:20;3.90;;;2.57;;
43297;SDS011;28892;55.640;37.532;2023-03-14T05:37:57;4.77;;;3.50;;
43297;SDS011;28892;55.640;37.532;2023-03-14T05:40:35;7.47;;;3.57;;
43297;SDS011;28892;55.640;37.532;2023-03-14T05:43:01;4.40;;;3.20;;
43297;SDS011;28892;55.640;37.532;2023-03-14T05:45:46;5.07;;;3.50;;
43297;SDS011;28892;55.640;37.532;2023-03-14T05:48:30;5.47;;;3.50;;
43297;SDS011;28892;55.640;37.532;2023-03-14T05:51:17;5.43;;;3.50;;
43297;SDS011;28892;55.640;37.532;2023-03-14T05:54:11;4.10;;;3.00;;
43297;SDS011;28892;55.640;37.532;2023-03-14T05:56:55;4.37;;;2.93;;
43297;SDS011;28892;55.640;37.532;2023-03-14T05:59:32;4.93;;;2.97;;
43297;SDS011;28892;55.640;37.532;2023-03-14T06:02:03;4.97;;;3.20;;
43297;SDS011;28892;55.640;37.532;2023-03-14T06:04:40;4.40;;;3.47;;
43297;SDS011;28892;55.640;37.532;2023-03-14T06:07:08;5.07;;;3.90;;
43297;SDS011;28892;55.640;37.532;2023-03-14T06:09:34;3.87;;;2.60;;
43297;SDS011;28892;55.640;37.532;2023-03-14T06:12:11;3.50;;;2.90;;
43297;SDS011;28892;55.640;37.532;2023-03-14T06:14:42;5.40;;;2.70;;
43297;SDS011;28892;55.640;37.532;2023-03-14T06:17:08;3.77;;;2.63;;
43297;SDS011;28892;55.640;37.532;2023-03-14T06:19:44;5.23;;;3.47;;
43297;SDS011;28892;55.640;37.532;2023-03-14T06:22:12;3.97;;;3.13;;
43297;SDS011;28892;55.640;37.532;2023-03-14T06:24:39;5.70;;;3.27;;
43297;SDS011;28892;55.640;37.532;2023-03-14T06:27:05;5.90;;;3.80;;
43297;SDS011;28892;55.640;37.532;2023-03-14T06:29:32;4.10;;;3.13;;
43297;SDS011;28892;55.640;37.532;2023-03-14T06:32:00;6.17;;;3.07;;
43297;SDS011;28892;55.640;37.532;2023-03-14T06:34:26;3.67;;;2.73;;
43297;SDS011;28892;55.640;37.532;2023-03-14T06:36:53;3.73;;;2.97;;
43297;SDS011;28892;55.640;37.532;2023-03-14T06:39:19;5.37;;;3.73;;
43297;SDS011;28892;55.640;37.532;2023-03-14T06:41:49;5.30;;;2.83;;
43297;SDS011;28892;55.640;37.532;2023-03-14T06:44:18;5.03;;;3.10;;
43297;SDS011;28892;55.640;37.532;2023-03-14T06:46:43;5.30;;;3.00;;
43297;SDS011;28892;55.640;37.532;2023-03-14T06:49:10;7.67;;;3.40;;
43297;SDS011;28892;55.640;37.532;2023-03-14T06:51:35;5.90;;;2.80;;
43297;SDS011;28892;55.640;37.532;2023-03-14T06:54:03;5.33;;;3.47;;
43297;SDS011;28892;55.640;37.532;2023-03-14T06:56:29;6.03;;;3.17;;
43297;SDS011;28892;55.640;37.532;2023-03-14T06:58:56;7.10;;;3.30;;
43297;SDS011;28892;55.640;37.532;2023-03-14T07:01:25;4.50;;;3.27;;
43297;SDS011;28892;55.640;37.532;2023-03-14T07:03:55;4.77;;;2.80;;
43297;SDS011;28892;55.640;37.532;2023-03-14T07:06:21;3.87;;;3.03;;
43297;SDS011;28892;55.640;37.532;2023-03-14T07:08:50;5.73;;;3.40;;
43297;SDS011;28892;55.640;37.532;2023-03-14T07:11:17;4.93;;;3.10;;
43297;SDS011;28892;55.640;37.532;2023-03-14T07:13:43;5.97;;;3.10;;
43297;SDS011;28892;55.640;37.532;2023-03-14T07:16:10;6.03;;;3.70;;
43297;SDS011;28892;55.640;37.532;2023-03-14T07:18:36;4.87;;;3.57;;
43297;SDS011;28892;55.640;37.532;2023-03-14T07:21:05;5.63;;;3.20;;
43297;SDS011;28892;55.640;37.532;2023-03-14T07:23:32;5.83;;;3.70;;
43297;SDS011;28892;55.640;37.532;2023-03-14T07:25:59;6.53;;;3.43;;
43297;SDS011;28892;55.640;37.532;2023-03-14T07:28:26;5.97;;;3.33;;
43297;SDS011;28892;55.640;37.532;2023-03-14T07:31:00;5.97;;;3.77;;
43297;SDS011;28892;55.640;37.532;2023-03-14T07:33:30;4.90;;;3.50;;
43297;SDS011;28892;55.640;37.532;2023-03-14T07:35:56;4.40;;;3.13;;
43297;SDS011;28892;55.640;37.532;2023-03-14T07:38:22;6.17;;;3.57;;
43297;SDS011;28892;55.640;37.532;2023-03-14T07:41:07;4.70;;;3.03;;
43297;SDS011;28892;55.640;37.532;2023-03-14T07:43:38;5.13;;;3.10;;
43297;SDS011;28892;55.640;37.532;2023-03-14T07:46:04;3.47;;;3.13;;
43297;SDS011;28892;55.640;37.532;2023-03-14T07:48:30;4.43;;;3.20;;
43297;SDS011;28892;55.640;37.532;2023-03-14T07:50:56;5.33;;;3.47;;
43297;SDS011;28892;55.640;37.532;2023-03-14T07:53:22;5.77;;;3.30;;
43297;SDS011;28892;55.640;37.532;2023-03-14T07:55:52;4.27;;;3.20;;
43297;SDS011;28892;55.640;37.532;2023-03-14T07:58:18;4.20;;;3.20;;
43297;SDS011;28892;55.640;37.532;2023-03-14T08:00:47;4.57;;;3.43;;
43297;SDS011;28892;55.640;37.532;2023-03-14T08:03:13;4.60;;;3.10;;
43297;SDS011;28892;55.640;37.532;2023-03-14T08:05:39;4.77;;;3.20;;
43297;SDS011;28892;55.640;37.532;2023-03-14T08:08:08;4.47;;;3.13;;
43297;SDS011;28892;55.640;37.532;2023-03-14T08:10:34;6.27;;;3.63;;
43297;SDS011;28892;55.640;37.532;2023-03-14T08:13:00;7.00;;;3.70;;
43297;SDS011;28892;55.640;37.532;2023-03-14T08:15:27;6.10;;;3.20;;
43297;SDS011;28892;55.640;37.532;2023-03-14T08:17:57;6.20;;;3.70;;
43297;SDS011;28892;55.640;37.532;2023-03-14T08:20:25;5.20;;;3.60;;
43297;SDS011;28892;55.640;37.532;2023-03-14T08:22:55;5.03;;;3.60;;
43297;SDS011;28892;55.640;37.532;2023-03-14T08:25:22;5.00;;;3.60;;
43297;SDS011;28892;55.640;37.532;2023-03-14T08:27:48;6.37;;;3.40;;
43297;SDS011;28892;55.640;37.532;2023-03-14T08:32:42;5.10;;;3.50;;
43297;SDS011;28892;55.640;37.532;2023-03-14T08:35:08;6.90;;;3.30;;
43297;SDS011;28892;55.640;37.532;2023-03-14T08:37:35;7.30;;;3.53;;
43297;SDS011;28892;55.640;37.532;2023-03-14T08:40:03;3.70;;;3.13;;
43297;SDS011;28892;55.640;37.532;2023-03-14T08:42:34;7.60;;;3.30;;
43297;SDS011;28892;55.640;37.532;2023-03-14T08:45:01;6.13;;;3.43;;
43297;SDS011;28892;55.640;37.532;2023-03-14T08:47:29;5.50;;;3.40;;
43297;SDS011;28892;55.640;37.532;2023-03-14T08:49:55;5.00;;;3.00;;
43297;SDS011;28892;55.640;37.532;2023-03-14T08:52:21;4.93;;;3.13;;
43297;SDS011;28892;55.640;37.532;2023-03-14T08:54:47;7.73;;;3.33;;
43297;SDS011;28892;55.640;37.532;2023-03-14T08:57:12;3.87;;;3.13;;
43297;SDS011;28892;55.640;37.532;2023-03-14T08:59:38;6.53;;;3.13;;
43297;SDS011;28892;55.640;37.532;2023-03-14T09:02:04;6.67;;;3.57;;
43297;SDS011;28892;55.640;37.532;2023-03-14T09:04:31;5.93;;;3.30;;
43297;SDS011;28892;55.640;37.532;2023-03-14T09:06:57;4.87;;;3.50;;
43297;SDS011;28892;55.640;37.532;2023-03-14T09:09:24;5.57;;;2.93;;
43297;SDS011;28892;55.640;37.532;2023-03-14T09:11:52;5.63;;;3.25;;
43297;SDS011;28892;55.640;37.532;2023-03-14T09:14:18;5.00;;;2.90;;
43297;SDS011;28892;55.640;37.532;2023-03-14T09:16:43;3.80;;;2.80;;
43297;SDS011;28892;55.640;37.532;2023-03-14T09:19:09;7.00;;;3.70;;
43297;SDS011;28892;55.640;37.532;2023-03-14T09:21:35;3.13;;;2.63;;
43297;SDS011;28892;55.640;37.532;2023-03-14T09:24:00;6.22;;;2.97;;
43297;SDS011;28892;55.640;37.532;2023-03-14T09:26:26;5.53;;;3.53;;
43297;SDS011;28892;55.640;37.532;2023-03-14T09:28:52;5.17;;;3.30;;
43297;SDS011;28892;55.640;37.532;2023-03-14T09:31:17;4.13;;;3.40;;
43297;SDS011;28892;55.640;37.532;2023-03-14T09:33:43;4.75;;;3.25;;
43297;SDS011;28892;55.640;37.532;2023-03-14T09:36:10;5.63;;;3.78;;
43297;SDS011;28892;55.640;37.532;2023-03-14T09:38:36;6.82;;;3.15;;
43297;SDS011;28892;55.640;37.532;2023-03-14T09:41:03;3.97;;;3.15;;
43297;SDS011;28892;55.640;37.532;2023-03-14T09:46:42;7.35;;;3.45;;
43297;SDS011;28892;55.640;37.532;2023-03-14T09:49:17;8.13;;;2.97;;
43297;SDS011;28892;55.640;37.532;2023-03-14T09:51:51;6.30;;;3.47;;
43297;SDS011;28892;55.640;37.532;2023-03-14T09:54:42;6.95;;;3.83;;
43297;SDS011;28892;55.640;37.532;2023-03-14T09:57:20;4.82;;;3.53;;
43297;SDS011;28892;55.640;37.532;2023-03-14T09:59:48;6.35;;;3.60;;
43297;SDS011;28892;55.640;37.532;2023-03-14T10:02:19;5.10;;;3.42;;
43297;SDS011;28892;55.640;37.532;2023-03-14T10:04:50;5.72;;;3.60;;
43297;SDS011;28892;55.640;37.532;2023-03-14T10:07:18;4.60;;;3.40;;
43297;SDS011;28892;55.640;37.532;2023-03-14T10:09:52;7.35;;;3.92;;
43297;SDS011;28892;55.640;37.532;2023-03-14T10:12:18;10.88;;;3.55;;
43297;SDS011;28892;55.640;37.532;2023-03-14T10:14:46;5.75;;;3.63;;
43297;SDS011;28892;55.640;37.532;2023-03-14T10:17:14;4.97;;;2.80;;
43297;SDS011;28892;55.640;37.532;2023-03-14T10:19:55;7.10;;;3.60;;
43297;SDS011;28892;55.640;37.532;2023-03-14T10:22:23;5.78;;;3.95;;
43297;SDS011;28892;55.640;37.532;2023-03-14T10:24:53;6.63;;;3.53;;
43297;SDS011;28892;55.640;37.532;2023-03-14T10:27:29;4.07;;;3.10;;
43297;SDS011;28892;55.640;37.532;2023-03-14T10:29:59;7.85;;;3.65;;
43297;SDS011;28892;55.640;37.532;2023-03-14T10:32:33;5.93;;;3.22;;
43297;SDS011;28892;55.640;37.532;2023-03-14T10:37:34;6.18;;;3.65;;
43297;SDS011;28892;55.640;37.532;2023-03-14T10:40:00;5.13;;;2.80;;
43297;SDS011;28892;55.640;37.532;2023-03-14T10:42:34;5.65;;;3.78;;
43297;SDS011;28892;55.640;37.532;2023-03-14T10:45:05;4.80;;;3.80;;
43297;SDS011;28892;55.640;37.532;2023-03-14T10:47:52;5.57;;;3.60;;
43297;SDS011;28892;55.640;37.532;2023-03-14T10:50:24;4.32;;;3.20;;
43297;SDS011;28892;55.640;37.532;2023-03-14T10:52:52;7.07;;;3.35;;
43297;SDS011;28892;55.640;37.532;2023-03-14T10:55:19;5.00;;;3.97;;
43297;SDS011;28892;55.640;37.532;2023-03-14T10:57:46;5.30;;;3.53;;
43297;SDS011;28892;55.640;37.532;2023-03-14T11:00:15;4.63;;;3.55;;
43297;SDS011;28892;55.640;37.532;2023-03-14T11:10:39;6.47;;;3.65;;
43297;SDS011;28892;55.640;37.532;2023-03-14T11:13:26;9.98;;;4.38;;
43297;SDS011;28892;55.640;37.532;2023-03-14T11:24:11;5.10;;;3.60;;
43297;SDS011;28892;55.640;37.532;2023-03-14T11:26:42;5.40;;;3.30;;
43297;SDS011;28892;55.640;37.532;2023-03-14T11:32:13;7.10;;;3.70;;
43297;SDS011;28892;55.640;37.532;2023-03-14T11:34:51;4.70;;;3.50;;
43297;SDS011;28892;55.640;37.532;2023-03-14T11:37:24;8.45;;;4.00;;
43297;SDS011;28892;55.640;37.532;2023-03-14T11:39:56;6.63;;;3.55;;
43297;SDS011;28892;55.640;37.532;2023-03-14T11:42:31;3.47;;;3.15;;
43297;SDS011;28892;55.640;37.532;2023-03-14T11:44:58;5.45;;;3.50;;
43297;SDS011;28892;55.640;37.532;2023-03-14T11:50:05;5.75;;;3.83;;
43297;SDS011;28892;55.640;37.532;2023-03-14T11:55:26;3.65;;;3.05;;
43297;SDS011;28892;55.640;37.532;2023-03-14T11:57:56;5.13;;;3.10;;
43297;SDS011;28892;55.640;37.532;2023-03-14T12:00:26;5.40;;;3.53;;
43297;SDS011;28892;55.640;37.532;2023-03-14T12:08:45;7.78;;;4.13;;
43297;SDS011;28892;55.640;37.532;2023-03-14T12:14:03;7.05;;;3.63;;
43297;SDS011;28892;55.640;37.532;2023-03-14T12:17:05;5.78;;;3.70;;
43297;SDS011;28892;55.640;37.532;2023-03-14T12:20:05;6.20;;;3.92;;
43297;SDS011;28892;55.640;37.532;2023-03-14T12:22:49;7.88;;;4.70;;
43297;SDS011;28892;55.640;37.532;2023-03-14T12:25:20;7.18;;;3.83;;
43297;SDS011;28892;55.640;37.532;2023-03-14T12:30:31;6.00;;;3.65;;
43297;SDS011;28892;55.640;37.532;2023-03-14T12:38:04;5.80;;;4.10;;
43297;SDS011;28892;55.640;37.532;2023-03-14T12:40:37;6.47;;;4.30;;
43297;SDS011;28892;55.640;37.532;2023-03-14T12:48:50;3.63;;;3.30;;
43297;SDS011;28892;55.640;37.532;2023-03-14T12:51:28;5.07;;;3.53;;
43297;SDS011;28892;55.640;37.532;2023-03-14T13:04:35;4.15;;;3.35;;
43297;SDS011;28892;55.640;37.532;2023-03-14T13:10:00;4.57;;;3.50;;
43297;SDS011;28892;55.640;37.532;2023-03-14T13:12:30;5.70;;;3.40;;
43297;SDS011;28892;55.640;37.532;2023-03-14T13:15:07;4.65;;;3.28;;
43297;SDS011;28892;55.640;37.532;2023-03-14T13:18:00;6.50;;;3.55;;
43297;SDS011;28892;55.640;37.532;2023-03-14T13:20:54;4.78;;;3.22;;
43297;SDS011;28892;55.640;37.532;2023-03-14T13:23:27;4.43;;;3.47;;
43297;SDS011;28892;55.640;37.532;2023-03-14T13:25:54;3.30;;;3.00;;
43297;SDS011;28892;55.640;37.532;2023-03-14T13:28:22;5.25;;;3.70;;
43297;SDS011;28892;55.640;37.532;2023-03-14T13:30:49;3.92;;;3.40;;
43297;SDS011;28892;55.640;37.532;2023-03-14T13:33:20;4.72;;;3.72;;
43297;SDS011;28892;55.640;37.532;2023-03-14T13:35:49;5.13;;;3.25;;
43297;SDS011;28892;55.640;37.532;2023-03-14T13:38:22;4.20;;;3.30;;
43297;SDS011;28892;55.640;37.532;2023-03-14T13:40:49;5.45;;;3.85;;
43297;SDS011;28892;55.640;37.532;2023-03-14T13:43:17;4.93;;;3.40;;
43297;SDS011;28892;55.640;37.532;2023-03-14T13:45:50;9.15;;;3.40;;
43297;SDS011;28892;55.640;37.532;2023-03-14T13:48:19;6.00;;;3.60;;
43297;SDS011;28892;55.640;37.532;2023-03-14T13:50:51;5.32;;;3.40;;
43297;SDS011;28892;55.640;37.532;2023-03-14T13:53:20;7.50;;;3.50;;
43297;SDS011;28892;55.640;37.532;2023-03-14T13:55:46;7.35;;;4.07;;
43297;SDS011;28892;55.640;37.532;2023-03-14T13:58:35;5.82;;;3.60;;
43297;SDS011;28892;55.640;37.532;2023-03-14T14:01:04;5.50;;;3.53;;
43297;SDS011;28892;55.640;37.532;2023-03-14T14:03:37;5.53;;;3.47;;
43297;SDS011;28892;55.640;37.532;2023-03-14T14:09:12;3.78;;;3.20;;
43297;SDS011;28892;55.640;37.532;2023-03-14T14:11:42;7.20;;;3.60;;
43297;SDS011;28892;55.640;37.532;2023-03-14T14:14:10;5.95;;;3.75;;
43297;SDS011;28892;55.640;37.532;2023-03-14T14:16:41;4.90;;;3.90;;
43297;SDS011;28892;55.640;37.532;2023-03-14T14:19:09;6.22;;;3.83;;
43297;SDS011;28892;55.640;37.532;2023-03-14T14:21:36;5.88;;;3.58;;
43297;SDS011;28892;55.640;37.532;2023-03-14T14:24:02;5.18;;;3.70;;
43297;SDS011;28892;55.640;37.532;2023-03-14T14:26:28;4.93;;;3.63;;
43297;SDS011;28892;55.640;37.532;2023-03-14T14:29:05;4.15;;;3.53;;
43297;SDS011;28892;55.640;37.532;2023-03-14T14:31:31;4.63;;;3.50;;
43297;SDS011;28892;55.640;37.532;2023-03-14T14:33:58;8.68;;;4.10;;
43297;SDS011;28892;55.640;37.532;2023-03-14T14:36:32;4.63;;;3.75;;
43297;SDS011;28892;55.640;37.532;2023-03-14T14:41:52;5.40;;;3.50;;
43297;SDS011;28892;55.640;37.532;2023-03-14T14:44:20;4.88;;;3.42;;
43297;SDS011;28892;55.640;37.532;2023-03-14T14:46:55;5.18;;;3.60;;
43297;SDS011;28892;55.640;37.532;2023-03-14T14:49:29;6.72;;;3.45;;
43297;SDS011;28892;55.640;37.532;2023-03-14T14:52:11;5.07;;;3.67;;
43297;SDS011;28892;55.640;37.532;2023-03-14T14:54:46;5.90;;;3.75;;
43297;SDS011;28892;55.640;37.532;2023-03-14T14:57:36;5.55;;;4.00;;
43297;SDS011;28892;55.640;37.532;2023-03-14T15:00:06;6.18;;;4.03;;
43297;SDS011;28892;55.640;37.532;2023-03-14T15:02:46;4.97;;;3.72;;
43297;SDS011;28892;55.640;37.532;2023-03-14T15:05:15;5.22;;;3.33;;
43297;SDS011;28892;55.640;37.532;2023-03-14T15:07:45;5.63;;;3.70;;
43297;SDS011;28892;55.640;37.532;2023-03-14T15:10:13;5.53;;;3.55;;
43297;SDS011;28892;55.640;37.532;2023-03-14T15:12:43;5.57;;;4.28;;
43297;SDS011;28892;55.640;37.532;2023-03-14T15:15:09;6.68;;;3.60;;
43297;SDS011;28892;55.640;37.532;2023-03-14T15:17:37;7.40;;;3.60;;
43297;SDS011;28892;55.640;37.532;2023-03-14T15:20:04;5.82;;;4.05;;
43297;SDS011;28892;55.640;37.532;2023-03-14T15:22:32;6.85;;;3.88;;
43297;SDS011;28892;55.640;37.532;2023-03-14T15:24:58;6.18;;;4.35;;
43297;SDS011;28892;55.640;37.532;2023-03-14T15:27:24;6.05;;;4.28;;
43297;SDS011;28892;55.640;37.532;2023-03-14T15:29:50;5.72;;;3.33;;
43297;SDS011;28892;55.640;37.532;2023-03-14T15:32:16;6.82;;;3.78;;
43297;SDS011;28892;55.640;37.532;2023-03-14T15:34:43;5.53;;;3.58;;
43297;SDS011;28892;55.640;37.532;2023-03-14T15:37:13;5.13;;;3.70;;
43297;SDS011;28892;55.640;37.532;2023-03-14T15:39:41;6.00;;;4.30;;
43297;SDS011;28892;55.640;37.532;2023-03-14T15:42:11;5.65;;;4.50;;
43297;SDS011;28892;55.640;37.532;2023-03-14T15:44:45;6.75;;;4.18;;
43297;SDS011;28892;55.640;37.532;2023-03-14T15:47:11;5.30;;;4.28;;
43297;SDS011;28892;55.640;37.532;2023-03-14T15:49:44;5.88;;;4.32;;
43297;SDS011;28892;55.640;37.532;2023-03-14T15:52:10;6.43;;;3.75;;
43297;SDS011;28892;55.640;37.532;2023-03-14T15:54:36;5.80;;;4.15;;
43297;SDS011;28892;55.640;37.532;2023-03-14T15:57:01;8.55;;;3.60;;
43297;SDS011;28892;55.640;37.532;2023-03-14T15:59:27;5.93;;;3.88;;
43297;SDS011;28892;55.640;37.532;2023-03-14T16:01:53;6.47;;;4.05;;
43297;SDS011;28892;55.640;37.532;2023-03-14T16:04:19;4.57;;;4.03;;
43297;SDS011;28892;55.640;37.532;2023-03-14T16:06:45;5.30;;;4.35;;
43297;SDS011;28892;55.640;37.532;2023-03-14T16:09:11;8.85;;;4.10;;
43297;SDS011;28892;55.640;37.532;2023-03-14T16:11:37;5.28;;;3.85;;
43297;SDS011;28892;55.640;37.532;2023-03-14T16:14:03;6.55;;;3.70;;